createdAt,value
2015-05-17T00:00:17.476Z,67
2015-05-17T00:00:36.023Z,67
2015-05-17T00:00:54.789Z,67
2015-05-17T00:01:13.182Z,67
2015-05-17T00:01:31.792Z,67
2015-05-17T00:01:50.292Z,67
2015-05-17T00:02:08.776Z,67
2015-05-17T00:02:27.670Z,67
2015-05-17T00:02:46.295Z,67
2015-05-17T00:03:04.873Z,67
2015-05-17T00:03:23.516Z,67
2015-05-17T00:03:42.109Z,67
2015-05-17T00:04:00.703Z,67
2015-05-17T00:04:19.469Z,67
2015-05-17T00:04:38.222Z,67
2015-05-17T00:04:56.628Z,67
2015-05-17T00:05:15.159Z,67
2015-05-17T00:05:33.849Z,67
2015-05-17T00:05:52.364Z,67
2015-05-17T00:06:10.255Z,67
2015-05-17T00:06:28.692Z,67
2015-05-17T00:06:47.430Z,67
2015-05-17T00:07:05.820Z,67
2015-05-17T00:07:24.211Z,67
2015-05-17T00:07:42.620Z,67
2015-05-17T00:08:01.073Z,67
2015-05-17T00:08:19.542Z,67
2015-05-17T00:08:37.980Z,67
2015-05-17T00:08:56.607Z,67
2015-05-17T00:09:15.450Z,67
2015-05-17T00:09:33.857Z,67
2015-05-17T00:09:52.406Z,67
2015-05-17T00:10:10.890Z,67
2015-05-17T00:10:29.296Z,67
2015-05-17T00:10:47.890Z,67
2015-05-17T00:11:06.346Z,67
2015-05-17T00:11:24.768Z,67
2015-05-17T00:11:43.393Z,67
2015-05-17T00:12:01.802Z,67
2015-05-17T00:12:20.224Z,67
2015-05-17T00:12:38.708Z,67
2015-05-17T00:12:57.130Z,67
2015-05-17T00:13:15.773Z,67
2015-05-17T00:13:34.210Z,67
2015-05-17T00:13:52.664Z,67
2015-05-17T00:14:11.135Z,67
2015-05-17T00:14:29.745Z,67
2015-05-17T00:14:48.260Z,67
2015-05-17T00:15:06.667Z,67
2015-05-17T00:15:25.325Z,67
2015-05-17T00:15:43.794Z,67
2015-05-17T00:16:02.247Z,67
2015-05-17T00:16:20.624Z,67
2015-05-17T00:16:39.108Z,67
2015-05-17T00:16:57.514Z,67
2015-05-17T00:17:15.967Z,67
2015-05-17T00:17:34.564Z,67
2015-05-17T00:17:53.002Z,67
2015-05-17T00:18:11.674Z,67
2015-05-17T00:18:30.144Z,67
2015-05-17T00:18:48.597Z,67
2015-05-17T00:19:07.191Z,67
2015-05-17T00:19:25.660Z,67
2015-05-17T00:19:44.179Z,67
2015-05-17T00:20:02.944Z,67
2015-05-17T00:20:21.413Z,67
2015-05-17T00:20:39.868Z,67
2015-05-17T00:20:58.337Z,67
2015-05-17T00:21:16.821Z,67
2015-05-17T00:21:35.243Z,67
2015-05-17T00:21:53.776Z,67
2015-05-17T00:22:12.198Z,67
2015-05-17T00:22:30.604Z,67
2015-05-17T00:22:48.998Z,67
2015-05-17T00:23:07.404Z,67
2015-05-17T00:23:25.842Z,67
2015-05-17T00:23:44.326Z,67
2015-05-17T00:24:02.814Z,67
2015-05-17T00:24:21.251Z,67
2015-05-17T00:24:39.704Z,67
2015-05-17T00:24:58.176Z,67
2015-05-17T00:25:16.660Z,67
2015-05-17T00:25:35.082Z,67
2015-05-17T00:25:53.551Z,67
2015-05-17T00:26:12.005Z,67
2015-05-17T00:26:30.396Z,67
2015-05-17T00:26:48.943Z,67
2015-05-17T00:27:07.430Z,67
2015-05-17T00:27:25.992Z,67
2015-05-17T00:27:44.524Z,67
2015-05-17T00:28:02.961Z,67
2015-05-17T00:28:21.355Z,67
2015-05-17T00:28:39.808Z,67
2015-05-17T00:28:58.261Z,67
2015-05-17T00:29:16.826Z,67
2015-05-17T00:29:35.513Z,67
2015-05-17T00:29:54.076Z,67
2015-05-17T00:30:12.857Z,67
2015-05-17T00:30:31.375Z,67
2015-05-17T00:30:49.844Z,67
2015-05-17T00:31:08.375Z,67
2015-05-17T00:31:27.002Z,67
2015-05-17T00:31:45.487Z,68
2015-05-17T00:32:03.924Z,68
2015-05-17T00:32:22.346Z,68
2015-05-17T00:32:40.739Z,68
2015-05-17T00:32:59.208Z,68
2015-05-17T00:33:17.645Z,68
2015-05-17T00:33:36.054Z,68
2015-05-17T00:33:54.664Z,68
2015-05-17T00:34:13.164Z,67
2015-05-17T00:34:31.586Z,67
2015-05-17T00:34:50.120Z,67
2015-05-17T00:35:08.651Z,67
2015-05-17T00:35:27.370Z,67
2015-05-17T00:35:45.981Z,67
2015-05-17T00:36:04.419Z,67
2015-05-17T00:36:22.934Z,67
2015-05-17T00:36:41.497Z,67
2015-05-17T00:36:59.969Z,67
2015-05-17T00:37:18.515Z,67
2015-05-17T00:37:37.015Z,67
2015-05-17T00:37:55.642Z,67
2015-05-17T00:38:14.033Z,67
2015-05-17T00:38:32.611Z,67
2015-05-17T00:38:51.033Z,67
2015-05-17T00:39:09.644Z,67
2015-05-17T00:39:28.207Z,67
2015-05-17T00:39:46.613Z,67
2015-05-17T00:40:05.163Z,67
2015-05-17T00:40:23.882Z,67
2015-05-17T00:40:42.507Z,67
2015-05-17T00:41:00.960Z,67
2015-05-17T00:41:19.556Z,67
2015-05-17T00:41:37.993Z,67
2015-05-17T00:41:56.743Z,67
2015-05-17T00:42:15.293Z,67
2015-05-17T00:42:33.824Z,67
2015-05-17T00:42:52.277Z,67
2015-05-17T00:43:10.871Z,67
2015-05-17T00:43:29.576Z,67
2015-05-17T00:43:48.139Z,67
2015-05-17T00:44:06.545Z,67
2015-05-17T00:44:24.939Z,67
2015-05-17T00:44:43.454Z,67
2015-05-17T00:45:01.845Z,67
2015-05-17T00:45:20.236Z,67
2015-05-17T00:45:37.972Z,67
2015-05-17T00:45:56.409Z,67
2015-05-17T00:46:14.878Z,67
2015-05-17T00:46:33.334Z,67
2015-05-17T00:46:51.725Z,67
2015-05-17T00:47:10.116Z,67
2015-05-17T00:47:28.662Z,67
2015-05-17T00:47:47.086Z,67
2015-05-17T00:48:05.539Z,67
2015-05-17T00:48:24.024Z,67
2015-05-17T00:48:42.417Z,67
2015-05-17T00:49:00.824Z,67
2015-05-17T00:49:19.261Z,67
2015-05-17T00:49:37.761Z,67
2015-05-17T00:49:56.232Z,67
2015-05-17T00:50:14.701Z,67
2015-05-17T00:50:33.091Z,67
2015-05-17T00:50:51.516Z,67
2015-05-17T00:51:09.922Z,67
2015-05-17T00:51:28.407Z,67
2015-05-17T00:51:47.016Z,67
2015-05-17T00:52:05.565Z,67
2015-05-17T00:52:24.159Z,67
2015-05-17T00:52:42.643Z,67
2015-05-17T00:53:01.037Z,67
2015-05-17T00:53:19.537Z,67
2015-05-17T00:53:37.990Z,67
2015-05-17T00:53:56.381Z,67
2015-05-17T00:54:14.867Z,67
2015-05-17T00:54:33.258Z,67
2015-05-17T00:54:51.664Z,67
2015-05-17T00:55:10.057Z,67
2015-05-17T00:55:28.495Z,67
2015-05-17T00:55:47.073Z,67
2015-05-17T00:56:05.464Z,67
2015-05-17T00:56:23.966Z,67
2015-05-17T00:56:42.403Z,67
2015-05-17T00:57:00.794Z,67
2015-05-17T00:57:19.187Z,67
2015-05-17T00:57:37.625Z,67
2015-05-17T00:57:56.078Z,67
2015-05-17T00:58:14.547Z,67
2015-05-17T00:58:33.080Z,67
2015-05-17T00:58:51.705Z,67
2015-05-17T00:59:10.096Z,67
2015-05-17T00:59:28.598Z,67
2015-05-17T00:59:47.066Z,67
2015-05-17T01:00:05.488Z,67
2015-05-17T01:00:23.910Z,67
2015-05-17T01:00:42.304Z,67
2015-05-17T01:01:00.819Z,67
2015-05-17T01:01:19.413Z,67
2015-05-17T01:01:37.869Z,67
2015-05-17T01:01:56.619Z,67
2015-05-17T01:02:15.166Z,67
2015-05-17T01:02:33.822Z,67
2015-05-17T01:02:52.245Z,67
2015-05-17T01:03:10.636Z,67
2015-05-17T01:03:29.089Z,67
2015-05-17T01:03:47.765Z,67
2015-05-17T01:04:06.296Z,67
2015-05-17T01:04:24.843Z,67
2015-05-17T01:04:43.687Z,67
2015-05-17T01:05:02.189Z,67
2015-05-17T01:05:20.845Z,67
2015-05-17T01:05:39.345Z,67
2015-05-17T01:05:57.738Z,67
2015-05-17T01:06:16.128Z,67
2015-05-17T01:06:34.675Z,67
2015-05-17T01:06:53.066Z,67
2015-05-17T01:07:11.678Z,67
2015-05-17T01:07:30.241Z,67
2015-05-17T01:07:48.772Z,67
2015-05-17T01:08:07.258Z,67
2015-05-17T01:08:25.774Z,67
2015-05-17T01:08:44.258Z,67
2015-05-17T01:09:02.649Z,67
2015-05-17T01:09:21.136Z,67
2015-05-17T01:09:39.746Z,67
2015-05-17T01:09:58.371Z,67
2015-05-17T01:10:16.233Z,67
2015-05-17T01:10:34.639Z,67
2015-05-17T01:10:53.108Z,67
2015-05-17T01:11:11.655Z,67
2015-05-17T01:11:30.219Z,67
2015-05-17T01:11:48.657Z,67
2015-05-17T01:12:07.251Z,67
2015-05-17T01:12:25.629Z,67
2015-05-17T01:12:44.191Z,67
2015-05-17T01:13:02.722Z,67
2015-05-17T01:13:21.129Z,68
2015-05-17T01:13:39.645Z,68
2015-05-17T01:13:58.239Z,68
2015-05-17T01:14:16.833Z,68
2015-05-17T01:14:35.336Z,68
2015-05-17T01:14:53.945Z,68
2015-05-17T01:15:12.430Z,68
2015-05-17T01:15:30.930Z,68
2015-05-17T01:15:49.495Z,68
2015-05-17T01:16:07.979Z,68
2015-05-17T01:16:26.792Z,68
2015-05-17T01:16:45.451Z,68
2015-05-17T01:17:04.092Z,68
2015-05-17T01:17:22.514Z,68
2015-05-17T01:17:41.092Z,68
2015-05-17T01:17:59.656Z,68
2015-05-17T01:18:18.141Z,68
2015-05-17T01:18:35.906Z,68
2015-05-17T01:18:54.315Z,68
2015-05-17T01:19:12.783Z,68
2015-05-17T01:19:31.205Z,68
2015-05-17T01:19:49.596Z,68
2015-05-17T01:20:08.318Z,68
2015-05-17T01:20:26.911Z,68
2015-05-17T01:20:45.318Z,68
2015-05-17T01:21:03.804Z,68
2015-05-17T01:21:22.226Z,68
2015-05-17T01:21:40.648Z,68
2015-05-17T01:21:59.195Z,68
2015-05-17T01:22:17.666Z,68
2015-05-17T01:22:36.104Z,68
2015-05-17T01:22:54.557Z,68
2015-05-17T01:23:13.075Z,68
2015-05-17T01:23:31.825Z,68
2015-05-17T01:23:50.434Z,68
2015-05-17T01:24:08.887Z,68
2015-05-17T01:24:26.624Z,68
2015-05-17T01:24:45.031Z,68
2015-05-17T01:25:03.531Z,67
2015-05-17T01:25:21.923Z,67
2015-05-17T01:25:40.330Z,67
2015-05-17T01:25:59.001Z,67
2015-05-17T01:26:17.392Z,68
2015-05-17T01:26:36.035Z,68
2015-05-17T01:26:54.410Z,68
2015-05-17T01:27:12.816Z,68
2015-05-17T01:27:31.210Z,68
2015-05-17T01:27:49.647Z,68
2015-05-17T01:28:08.116Z,68
2015-05-17T01:28:26.725Z,68
2015-05-17T01:28:45.119Z,68
2015-05-17T01:29:03.806Z,68
2015-05-17T01:29:22.431Z,68
2015-05-17T01:29:40.996Z,68
2015-05-17T01:29:59.402Z,68
2015-05-17T01:30:17.808Z,68
2015-05-17T01:30:35.543Z,68
2015-05-17T01:30:53.935Z,68
2015-05-17T01:31:12.451Z,68
2015-05-17T01:31:31.170Z,68
2015-05-17T01:31:49.799Z,68
2015-05-17T01:32:08.221Z,68
2015-05-17T01:32:26.846Z,68
2015-05-17T01:32:45.439Z,68
2015-05-17T01:33:03.925Z,68
2015-05-17T01:33:22.331Z,68
2015-05-17T01:33:40.831Z,68
2015-05-17T01:33:59.225Z,68
2015-05-17T01:34:17.834Z,68
2015-05-17T01:34:36.787Z,68
2015-05-17T01:34:55.193Z,68
2015-05-17T01:35:13.618Z,68
2015-05-17T01:35:32.165Z,68
2015-05-17T01:35:50.587Z,68
2015-05-17T01:36:09.058Z,68
2015-05-17T01:36:27.589Z,68
2015-05-17T01:36:46.058Z,68
2015-05-17T01:37:04.542Z,68
2015-05-17T01:37:22.967Z,68
2015-05-17T01:37:41.404Z,68
2015-05-17T01:38:00.045Z,68
2015-05-17T01:38:18.500Z,68
2015-05-17T01:38:36.906Z,68
2015-05-17T01:38:55.438Z,68
2015-05-17T01:39:13.828Z,68
2015-05-17T01:39:32.300Z,68
2015-05-17T01:39:51.003Z,68
2015-05-17T01:40:09.238Z,68
2015-05-17T01:40:27.474Z,68
2015-05-17T01:40:46.021Z,68
2015-05-17T01:41:04.411Z,68
2015-05-17T01:41:22.974Z,68
2015-05-17T01:41:41.414Z,68
2015-05-17T01:42:00.039Z,68
2015-05-17T01:42:18.649Z,68
2015-05-17T01:42:37.041Z,68
2015-05-17T01:42:55.588Z,68
2015-05-17T01:43:14.104Z,68
2015-05-17T01:43:32.916Z,68
2015-05-17T01:43:51.310Z,68
2015-05-17T01:44:10.107Z,68
2015-05-17T01:44:28.607Z,68
2015-05-17T01:44:47.125Z,68
2015-05-17T01:45:05.750Z,68
2015-05-17T01:45:24.250Z,68
2015-05-17T01:45:42.718Z,68
2015-05-17T01:46:01.111Z,68
2015-05-17T01:46:19.658Z,68
2015-05-17T01:46:38.377Z,68
2015-05-17T01:46:56.801Z,68
2015-05-17T01:47:15.348Z,68
2015-05-17T01:47:33.942Z,68
2015-05-17T01:47:52.505Z,68
2015-05-17T01:48:10.913Z,68
2015-05-17T01:48:29.507Z,68
2015-05-17T01:48:47.960Z,68
2015-05-17T01:49:06.556Z,68
2015-05-17T01:49:25.260Z,68
2015-05-17T01:49:43.650Z,68
2015-05-17T01:50:02.228Z,68
2015-05-17T01:50:20.638Z,68
2015-05-17T01:50:39.044Z,68
2015-05-17T01:50:57.575Z,68
2015-05-17T01:51:15.952Z,68
2015-05-17T01:51:34.358Z,68
2015-05-17T01:51:52.827Z,68
2015-05-17T01:52:11.311Z,68
2015-05-17T01:52:29.938Z,68
2015-05-17T01:52:48.579Z,68
2015-05-17T01:53:07.188Z,68
2015-05-17T01:53:25.770Z,68
2015-05-17T01:53:43.551Z,68
2015-05-17T01:54:02.020Z,68
2015-05-17T01:54:20.410Z,68
2015-05-17T01:54:38.959Z,68
2015-05-17T01:54:57.553Z,68
2015-05-17T01:55:16.053Z,68
2015-05-17T01:55:34.665Z,68
2015-05-17T01:55:53.071Z,68
2015-05-17T01:56:11.446Z,68
2015-05-17T01:56:29.978Z,68
2015-05-17T01:56:48.355Z,68
2015-05-17T01:57:06.839Z,68
2015-05-17T01:57:25.230Z,68
2015-05-17T01:57:43.733Z,68
2015-05-17T01:58:02.420Z,68
2015-05-17T01:58:20.842Z,68
2015-05-17T01:58:39.092Z,68
2015-05-17T01:58:57.970Z,68
2015-05-17T01:59:16.408Z,68
2015-05-17T01:59:34.970Z,68
2015-05-17T01:59:53.628Z,68
2015-05-17T02:00:12.394Z,68
2015-05-17T02:00:30.785Z,68
2015-05-17T02:00:49.175Z,68
2015-05-17T02:01:08.146Z,68
2015-05-17T02:01:26.646Z,68
2015-05-17T02:01:45.037Z,68
2015-05-17T02:02:03.743Z,68
2015-05-17T02:02:22.133Z,68
2015-05-17T02:02:40.586Z,68
2015-05-17T02:02:59.118Z,68
2015-05-17T02:03:17.543Z,68
2015-05-17T02:03:36.058Z,68
2015-05-17T02:03:54.433Z,68
2015-05-17T02:04:12.841Z,69
2015-05-17T02:04:31.232Z,69
2015-05-17T02:04:49.748Z,69
2015-05-17T02:05:08.138Z,68
2015-05-17T02:05:26.531Z,68
2015-05-17T02:05:44.937Z,68
2015-05-17T02:06:03.359Z,68
2015-05-17T02:06:21.956Z,68
2015-05-17T02:06:40.471Z,68
2015-05-17T02:06:59.081Z,69
2015-05-17T02:07:17.471Z,69
2015-05-17T02:07:35.911Z,69
2015-05-17T02:07:53.864Z,69
2015-05-17T02:08:12.395Z,69
2015-05-17T02:08:30.273Z,69
2015-05-17T02:08:48.836Z,69
2015-05-17T02:09:07.367Z,69
2015-05-17T02:09:25.789Z,69
2015-05-17T02:09:44.228Z,69
2015-05-17T02:10:01.978Z,69
2015-05-17T02:10:20.400Z,69
2015-05-17T02:10:38.731Z,69
2015-05-17T02:10:57.122Z,69
2015-05-17T02:11:15.528Z,69
2015-05-17T02:11:33.997Z,69
2015-05-17T02:11:52.515Z,69
2015-05-17T02:12:10.983Z,69
2015-05-17T02:12:29.702Z,68
2015-05-17T02:12:48.190Z,68
2015-05-17T02:13:06.768Z,68
2015-05-17T02:13:25.486Z,68
2015-05-17T02:13:43.940Z,68
2015-05-17T02:14:05.692Z,68
2015-05-17T02:14:24.457Z,68
2015-05-17T02:14:42.848Z,68
2015-05-17T02:15:01.928Z,68
2015-05-17T02:15:20.475Z,69
2015-05-17T02:15:38.865Z,69
2015-05-17T02:15:57.572Z,69
2015-05-17T02:16:16.025Z,69
2015-05-17T02:16:34.509Z,69
2015-05-17T02:16:53.072Z,69
2015-05-17T02:17:11.620Z,69
2015-05-17T02:17:30.136Z,69
2015-05-17T02:17:48.620Z,69
2015-05-17T02:18:07.045Z,69
2015-05-17T02:18:25.452Z,69
2015-05-17T02:18:44.045Z,69
2015-05-17T02:19:02.561Z,69
2015-05-17T02:19:21.360Z,69
2015-05-17T02:19:40.204Z,69
2015-05-17T02:19:58.735Z,69
2015-05-17T02:20:17.207Z,69
2015-05-17T02:20:35.660Z,69
2015-05-17T02:20:54.160Z,69
2015-05-17T02:21:12.769Z,69
2015-05-17T02:21:31.302Z,69
2015-05-17T02:21:49.865Z,69
2015-05-17T02:22:08.537Z,69
2015-05-17T02:22:27.055Z,69
2015-05-17T02:22:45.743Z,69
2015-05-17T02:23:04.274Z,69
2015-05-17T02:23:22.243Z,69
2015-05-17T02:23:40.776Z,69
2015-05-17T02:23:59.651Z,69
2015-05-17T02:24:18.042Z,69
2015-05-17T02:24:36.904Z,69
2015-05-17T02:24:55.560Z,69
2015-05-17T02:25:14.045Z,69
2015-05-17T02:25:32.654Z,69
2015-05-17T02:25:51.187Z,69
2015-05-17T02:26:09.640Z,69
2015-05-17T02:26:28.125Z,69
2015-05-17T02:26:46.736Z,69
2015-05-17T02:27:05.408Z,69
2015-05-17T02:27:24.064Z,69
2015-05-17T02:27:42.627Z,69
2015-05-17T02:28:01.380Z,69
2015-05-17T02:28:19.817Z,69
2015-05-17T02:28:38.208Z,69
2015-05-17T02:28:56.742Z,69
2015-05-17T02:29:15.258Z,69
2015-05-17T02:29:33.711Z,69
2015-05-17T02:29:52.367Z,69
2015-05-17T02:30:10.807Z,68
2015-05-17T02:30:29.291Z,69
2015-05-17T02:30:48.010Z,69
2015-05-17T02:31:06.528Z,69
2015-05-17T02:31:25.028Z,69
2015-05-17T02:31:43.622Z,69
2015-05-17T02:32:02.075Z,69
2015-05-17T02:32:20.687Z,69
2015-05-17T02:32:39.171Z,69
2015-05-17T02:32:57.796Z,69
2015-05-17T02:33:16.376Z,69
2015-05-17T02:33:34.892Z,69
2015-05-17T02:33:53.361Z,69
2015-05-17T02:34:11.954Z,69
2015-05-17T02:34:30.535Z,69
2015-05-17T02:34:49.114Z,69
2015-05-17T02:35:07.598Z,69
2015-05-17T02:35:25.992Z,69
2015-05-17T02:35:44.804Z,69
2015-05-17T02:36:03.195Z,69
2015-05-17T02:36:21.804Z,69
2015-05-17T02:36:40.415Z,69
2015-05-17T02:36:58.869Z,69
2015-05-17T02:37:17.447Z,69
2015-05-17T02:37:36.059Z,69
2015-05-17T02:37:54.543Z,69
2015-05-17T02:38:13.122Z,69
2015-05-17T02:38:31.528Z,69
2015-05-17T02:38:49.952Z,69
2015-05-17T02:39:08.592Z,69
2015-05-17T02:39:27.108Z,69
2015-05-17T02:39:45.783Z,69
2015-05-17T02:40:04.158Z,69
2015-05-17T02:40:22.752Z,69
2015-05-17T02:40:41.423Z,69
2015-05-17T02:41:00.035Z,69
2015-05-17T02:41:18.535Z,70
2015-05-17T02:41:36.988Z,69
2015-05-17T02:41:55.459Z,70
2015-05-17T02:42:14.334Z,70
2015-05-17T02:42:32.927Z,70
2015-05-17T02:42:51.677Z,70
2015-05-17T02:43:10.227Z,70
2015-05-17T02:43:28.634Z,70
2015-05-17T02:43:47.477Z,70
2015-05-17T02:44:06.152Z,70
2015-05-17T02:44:24.777Z,70
2015-05-17T02:44:43.340Z,70
2015-05-17T02:45:01.871Z,70
2015-05-17T02:45:20.482Z,70
2015-05-17T02:45:38.873Z,70
2015-05-17T02:45:57.373Z,70
2015-05-17T02:46:15.860Z,70
2015-05-17T02:46:34.282Z,70
2015-05-17T02:46:52.720Z,70
2015-05-17T02:47:11.173Z,70
2015-05-17T02:47:29.597Z,70
2015-05-17T02:47:48.425Z,70
2015-05-17T02:48:06.972Z,70
2015-05-17T02:48:25.365Z,70
2015-05-17T02:48:43.772Z,70
2015-05-17T02:49:02.475Z,70
2015-05-17T02:49:21.115Z,70
2015-05-17T02:49:39.617Z,70
2015-05-17T02:49:58.133Z,70
2015-05-17T02:50:16.680Z,70
2015-05-17T02:50:35.338Z,70
2015-05-17T02:50:53.760Z,70
2015-05-17T02:51:12.588Z,70
2015-05-17T02:51:31.026Z,70
2015-05-17T02:51:49.450Z,70
2015-05-17T02:52:07.950Z,70
2015-05-17T02:52:26.779Z,70
2015-05-17T02:52:45.390Z,70
2015-05-17T02:53:03.999Z,70
2015-05-17T02:53:22.390Z,70
2015-05-17T02:53:40.999Z,70
2015-05-17T02:53:59.549Z,70
2015-05-17T02:54:18.127Z,70
2015-05-17T02:54:36.846Z,70
2015-05-17T02:54:55.318Z,70
2015-05-17T02:55:13.802Z,70
2015-05-17T02:55:32.552Z,70
2015-05-17T02:55:50.927Z,70
2015-05-17T02:56:09.476Z,70
2015-05-17T02:56:27.960Z,70
2015-05-17T02:56:46.507Z,71
2015-05-17T02:57:05.041Z,70
2015-05-17T02:57:23.447Z,71
2015-05-17T02:57:42.119Z,71
2015-05-17T02:58:00.572Z,71
2015-05-17T02:58:19.075Z,71
2015-05-17T02:58:37.559Z,71
2015-05-17T02:59:17.578Z,71
2015-05-17T02:59:36.093Z,71
2015-05-17T02:59:54.656Z,71
2015-05-17T03:00:13.140Z,71
2015-05-17T03:00:31.674Z,71
2015-05-17T03:00:50.267Z,71
2015-05-17T03:01:08.814Z,71
2015-05-17T03:01:27.395Z,71
2015-05-17T03:01:45.989Z,71
2015-05-17T03:02:04.755Z,71
2015-05-17T03:02:23.223Z,71
2015-05-17T03:02:41.975Z,71
2015-05-17T03:03:00.585Z,71
2015-05-17T03:03:19.085Z,71
2015-05-17T03:03:37.650Z,71
2015-05-17T03:03:56.057Z,71
2015-05-17T03:04:14.478Z,70
2015-05-17T03:04:33.135Z,70
2015-05-17T03:04:51.527Z,71
2015-05-17T03:05:09.965Z,70
2015-05-17T03:05:28.496Z,70
2015-05-17T03:05:46.967Z,70
2015-05-17T03:06:05.607Z,70
2015-05-17T03:06:23.998Z,70
2015-05-17T03:06:42.529Z,70
2015-05-17T03:07:00.954Z,70
2015-05-17T03:07:19.470Z,71
2015-05-17T03:07:38.064Z,71
2015-05-17T03:07:56.848Z,71
2015-05-17T03:08:15.535Z,71
2015-05-17T03:08:34.254Z,71
2015-05-17T03:08:52.238Z,71
2015-05-17T03:09:10.740Z,71
2015-05-17T03:09:29.412Z,71
2015-05-17T03:09:47.850Z,71
2015-05-17T03:10:06.305Z,71
2015-05-17T03:10:24.914Z,71
2015-05-17T03:10:43.696Z,71
2015-05-17T03:11:02.133Z,71
2015-05-17T03:11:20.635Z,71
2015-05-17T03:11:39.073Z,71
2015-05-17T03:11:57.760Z,71
2015-05-17T03:12:16.186Z,71
2015-05-17T03:12:34.748Z,71
2015-05-17T03:12:53.358Z,72
2015-05-17T03:13:11.858Z,72
2015-05-17T03:13:30.360Z,72
2015-05-17T03:13:49.000Z,72
2015-05-17T03:14:07.579Z,72
2015-05-17T03:14:26.019Z,72
2015-05-17T03:14:44.503Z,72
2015-05-17T03:15:03.082Z,72
2015-05-17T03:15:21.519Z,72
2015-05-17T03:15:40.037Z,72
2015-05-17T03:15:58.537Z,72
2015-05-17T03:16:17.130Z,72
2015-05-17T03:16:35.899Z,72
2015-05-17T03:16:54.462Z,72
2015-05-17T03:17:12.868Z,72
2015-05-17T03:17:31.430Z,72
2015-05-17T03:17:49.917Z,72
2015-05-17T03:18:08.776Z,73
2015-05-17T03:18:27.260Z,73
2015-05-17T03:18:45.717Z,73
2015-05-17T03:19:04.404Z,73
2015-05-17T03:19:22.826Z,73
2015-05-17T03:19:41.373Z,73
2015-05-17T03:19:59.953Z,73
2015-05-17T03:20:18.437Z,73
2015-05-17T03:20:36.937Z,73
2015-05-17T03:20:55.409Z,73
2015-05-17T03:21:13.393Z,73
2015-05-17T03:21:31.815Z,73
2015-05-17T03:21:50.253Z,73
2015-05-17T03:22:08.816Z,73
2015-05-17T03:22:27.426Z,73
2015-05-17T03:22:46.004Z,73
2015-05-17T03:23:04.617Z,73
2015-05-17T03:23:23.367Z,73
2015-05-17T03:23:41.914Z,73
2015-05-17T03:24:00.492Z,73
2015-05-17T03:24:19.182Z,73
2015-05-17T03:24:37.947Z,73
2015-05-17T03:24:56.494Z,73
2015-05-17T03:25:15.059Z,73
2015-05-17T03:25:33.527Z,73
2015-05-17T03:25:52.059Z,73
2015-05-17T03:26:10.468Z,74
2015-05-17T03:26:29.030Z,73
2015-05-17T03:26:47.640Z,73
2015-05-17T03:27:06.202Z,74
2015-05-17T03:27:24.673Z,74
2015-05-17T03:27:43.861Z,74
2015-05-17T03:28:02.267Z,74
2015-05-17T03:28:20.738Z,74
2015-05-17T03:28:39.284Z,74
2015-05-17T03:28:57.769Z,74
2015-05-17T03:29:16.363Z,74
2015-05-17T03:29:34.834Z,74
2015-05-17T03:29:53.553Z,74
2015-05-17T03:30:12.053Z,74
2015-05-17T03:30:30.649Z,74
2015-05-17T03:30:49.258Z,74
2015-05-17T03:31:08.039Z,74
2015-05-17T03:31:26.493Z,74
2015-05-17T03:31:45.027Z,74
2015-05-17T03:32:03.496Z,74
2015-05-17T03:32:22.058Z,74
2015-05-17T03:32:40.608Z,74
2015-05-17T03:32:59.139Z,74
2015-05-17T03:33:17.577Z,74
2015-05-17T03:33:36.217Z,74
2015-05-17T03:33:54.657Z,74
2015-05-17T03:34:12.751Z,74
2015-05-17T03:34:30.626Z,74
2015-05-17T03:34:49.081Z,74
2015-05-17T03:35:07.799Z,75
2015-05-17T03:35:26.846Z,75
2015-05-17T03:35:45.674Z,75
2015-05-17T03:36:04.131Z,75
2015-05-17T03:36:22.662Z,75
2015-05-17T03:36:40.552Z,75
2015-05-17T03:36:58.992Z,75
2015-05-17T03:37:17.445Z,75
2015-05-17T03:37:35.836Z,75
2015-05-17T03:37:54.273Z,75
2015-05-17T03:38:12.666Z,75
2015-05-17T03:38:31.166Z,75
2015-05-17T03:38:49.728Z,75
2015-05-17T03:39:08.341Z,75
2015-05-17T03:39:27.013Z,75
2015-05-17T03:39:45.450Z,75
2015-05-17T03:40:03.997Z,75
2015-05-17T03:40:22.609Z,75
2015-05-17T03:40:40.719Z,75
2015-05-17T03:40:58.766Z,76
2015-05-17T03:41:17.159Z,76
2015-05-17T03:41:35.769Z,76
2015-05-17T03:41:54.425Z,76
2015-05-17T03:42:13.050Z,76
2015-05-17T03:42:31.567Z,76
2015-05-17T03:42:50.114Z,76
2015-05-17T03:43:08.692Z,76
2015-05-17T03:43:27.148Z,76
2015-05-17T03:43:45.538Z,76
2015-05-17T03:44:04.069Z,76
2015-05-17T03:44:22.507Z,76
2015-05-17T03:44:41.057Z,76
2015-05-17T03:44:59.541Z,76
2015-05-17T03:45:18.291Z,76
2015-05-17T03:45:36.700Z,76
2015-05-17T03:45:55.247Z,77
2015-05-17T03:46:13.982Z,77
2015-05-17T03:46:32.435Z,77
2015-05-17T03:46:51.093Z,77
2015-05-17T03:47:09.390Z,77
2015-05-17T03:47:28.124Z,77
2015-05-17T03:47:46.565Z,77
2015-05-17T03:48:04.987Z,77
2015-05-17T03:48:23.455Z,77
2015-05-17T03:48:41.893Z,77
2015-05-17T03:49:00.567Z,77
2015-05-17T03:49:19.192Z,77
2015-05-17T03:49:37.582Z,77
2015-05-17T03:49:56.241Z,77
2015-05-17T03:50:14.819Z,77
2015-05-17T03:50:33.319Z,78
2015-05-17T03:50:51.788Z,78
2015-05-17T03:51:10.336Z,78
2015-05-17T03:51:28.930Z,78
2015-05-17T03:51:47.680Z,78
2015-05-17T03:52:06.200Z,78
2015-05-17T03:52:24.731Z,78
2015-05-17T03:52:43.356Z,78
2015-05-17T03:53:02.169Z,78
2015-05-17T03:53:20.702Z,78
2015-05-17T03:53:39.249Z,78
2015-05-17T03:53:57.796Z,78
2015-05-17T03:54:16.298Z,78
2015-05-17T03:54:34.719Z,78
2015-05-17T03:54:53.141Z,78
2015-05-17T03:55:11.548Z,78
2015-05-17T03:55:29.972Z,78
2015-05-17T03:55:48.363Z,78
2015-05-17T03:56:06.879Z,78
2015-05-17T03:56:25.287Z,78
2015-05-17T03:56:43.865Z,78
2015-05-17T03:57:02.506Z,78
2015-05-17T03:57:20.740Z,78
2015-05-17T03:57:39.431Z,78
2015-05-17T03:57:57.946Z,78
2015-05-17T03:58:16.556Z,78
2015-05-17T03:58:34.995Z,78
2015-05-17T03:58:53.386Z,78
2015-05-17T03:59:12.058Z,78
2015-05-17T03:59:30.651Z,78
2015-05-17T03:59:49.076Z,78
2015-05-17T04:00:07.654Z,79
2015-05-17T04:00:26.264Z,79
2015-05-17T04:00:44.782Z,79
2015-05-17T04:01:03.282Z,79
2015-05-17T04:01:21.876Z,79
2015-05-17T04:01:40.329Z,79
2015-05-17T04:01:58.752Z,79
2015-05-17T04:02:17.393Z,79
2015-05-17T04:02:35.830Z,79
2015-05-17T04:02:54.521Z,79
2015-05-17T04:03:13.068Z,79
2015-05-17T04:03:31.552Z,79
2015-05-17T04:03:50.146Z,79
2015-05-17T04:04:08.680Z,79
2015-05-17T04:04:27.117Z,79
2015-05-17T04:04:45.680Z,79
2015-05-17T04:05:04.120Z,79
2015-05-17T04:05:22.558Z,79
2015-05-17T04:05:40.949Z,79
2015-05-17T04:05:59.480Z,79
2015-05-17T04:06:17.887Z,79
2015-05-17T04:06:36.325Z,79
2015-05-17T04:06:54.950Z,79
2015-05-17T04:07:13.453Z,79
2015-05-17T04:07:31.937Z,79
2015-05-17T04:07:50.484Z,79
2015-05-17T04:08:09.015Z,79
2015-05-17T04:08:27.627Z,79
2015-05-17T04:08:46.096Z,79
2015-05-17T04:09:04.768Z,79
2015-05-17T04:09:23.301Z,79
2015-05-17T04:09:41.723Z,79
2015-05-17T04:10:00.067Z,79
2015-05-17T04:10:18.708Z,80
2015-05-17T04:10:37.304Z,80
2015-05-17T04:10:55.711Z,80
2015-05-17T04:11:14.257Z,80
2015-05-17T04:11:32.681Z,80
2015-05-17T04:11:51.291Z,80
2015-05-17T04:12:09.838Z,80
2015-05-17T04:12:28.291Z,80
2015-05-17T04:12:46.840Z,80
2015-05-17T04:13:05.730Z,80
2015-05-17T04:13:24.308Z,79
2015-05-17T04:13:43.046Z,80
2015-05-17T04:14:01.561Z,80
2015-05-17T04:14:20.124Z,80
2015-05-17T04:14:38.530Z,80
2015-05-17T04:14:56.938Z,80
2015-05-17T04:15:15.688Z,80
2015-05-17T04:15:34.345Z,80
2015-05-17T04:15:53.020Z,80
2015-05-17T04:16:11.661Z,80
2015-05-17T04:16:30.099Z,80
2015-05-17T04:16:48.583Z,80
2015-05-17T04:17:07.476Z,80
2015-05-17T04:17:25.866Z,80
2015-05-17T04:17:44.522Z,80
2015-05-17T04:18:02.931Z,80
2015-05-17T04:18:21.431Z,80
2015-05-17T04:18:40.009Z,80
2015-05-17T04:18:58.618Z,80
2015-05-17T04:19:17.105Z,80
2015-05-17T04:19:35.573Z,80
2015-05-17T04:19:53.980Z,80
2015-05-17T04:20:12.467Z,80
2015-05-17T04:20:31.108Z,80
2015-05-17T04:20:49.576Z,80
2015-05-17T04:21:08.123Z,80
2015-05-17T04:21:26.641Z,80
2015-05-17T04:21:45.266Z,80
2015-05-17T04:22:03.719Z,80
2015-05-17T04:22:22.206Z,80
2015-05-17T04:22:40.675Z,80
2015-05-17T04:22:59.066Z,80
2015-05-17T04:23:17.753Z,80
2015-05-17T04:23:36.147Z,80
2015-05-17T04:23:54.897Z,80
2015-05-17T04:24:13.381Z,80
2015-05-17T04:24:32.227Z,80